createdAt,value
2023-04-16T00:02:15.715Z,17.80
2023-04-16T00:04:43.860Z,20.03
2023-04-16T00:07:11.909Z,18.97
2023-04-16T00:09:39.902Z,18.67
2023-04-16T00:12:07.931Z,18.43
2023-04-16T00:14:37.434Z,18.90
2023-04-16T00:17:05.364Z,19.60
2023-04-16T00:19:33.355Z,19.13
2023-04-16T00:22:01.721Z,19.57
2023-04-16T00:24:29.694Z,19.50
2023-04-16T00:26:57.751Z,19.13
2023-04-16T00:29:27.500Z,22.27
2023-04-16T00:31:56.810Z,22.47
2023-04-16T00:34:25.172Z,23.70
2023-04-16T00:36:53.159Z,27.37
2023-04-16T00:39:21.147Z,26.83
2023-04-16T00:41:49.280Z,26.70
2023-04-16T00:44:17.247Z,27.73
2023-04-16T00:46:46.069Z,29.00
2023-04-16T00:49:16.027Z,28.90
2023-04-16T00:51:44.136Z,29.27
2023-04-16T00:54:12.129Z,26.30
2023-04-16T00:56:41.166Z,26.40
2023-04-16T00:59:10.094Z,26.07
2023-04-16T01:01:38.396Z,25.60
2023-04-16T01:04:07.633Z,26.20
2023-04-16T01:06:37.331Z,27.87
2023-04-16T01:09:05.385Z,27.20
2023-04-16T01:11:33.316Z,25.40
2023-04-16T01:14:01.262Z,28.17
2023-04-16T01:16:29.217Z,30.33
2023-04-16T01:18:57.336Z,28.50
2023-04-16T01:21:27.479Z,27.00
2023-04-16T01:23:55.654Z,29.50
2023-04-16T01:26:23.615Z,30.60
2023-04-16T01:28:51.700Z,35.17
2023-04-16T01:31:19.770Z,33.40
2023-04-16T01:34:05.233Z,35.30
2023-04-16T01:36:35.131Z,35.10
2023-04-16T01:39:03.427Z,34.10
2023-04-16T01:41:32.660Z,32.40
2023-04-16T01:44:00.810Z,31.97
2023-04-16T01:46:30.098Z,32.77
2023-04-16T01:48:58.424Z,34.03
2023-04-16T01:51:27.247Z,32.90
2023-04-16T01:53:58.360Z,33.97
2023-04-16T01:56:26.440Z,32.47
2023-04-16T01:58:54.669Z,34.90
2023-04-16T02:01:23.022Z,35.53
2023-04-16T02:03:52.829Z,35.00
2023-04-16T02:06:21.241Z,33.60
2023-04-16T02:08:49.387Z,32.07
2023-04-16T02:11:18.600Z,33.63
2023-04-16T02:13:47.166Z,34.73
2023-04-16T02:16:15.644Z,35.70
2023-04-16T02:19:04.640Z,30.63
2023-04-16T02:21:35.981Z,26.77
2023-04-16T02:24:04.198Z,25.83
2023-04-16T02:26:33.978Z,25.17
2023-04-16T02:29:07.715Z,23.47
2023-04-16T02:31:41.909Z,23.47
2023-04-16T02:34:11.694Z,24.57
2023-04-16T02:36:39.886Z,23.73
2023-04-16T02:39:08.135Z,24.20
2023-04-16T02:41:38.543Z,24.23
2023-04-16T02:44:07.001Z,25.63
2023-04-16T02:46:34.968Z,26.03
2023-04-16T02:49:02.875Z,26.13
2023-04-16T02:51:31.071Z,27.30
2023-04-16T02:53:58.934Z,26.37
2023-04-16T02:56:26.848Z,27.47
2023-04-16T02:58:56.157Z,26.60
2023-04-16T03:01:24.059Z,26.40
2023-04-16T03:03:52.142Z,26.90
2023-04-16T03:06:20.108Z,26.27
2023-04-16T03:08:47.994Z,25.57
2023-04-16T03:11:16.831Z,24.93
2023-04-16T03:13:45.161Z,25.30
2023-04-16T03:16:14.688Z,26.00
2023-04-16T03:18:42.712Z,25.37
2023-04-16T03:21:11.148Z,24.73
2023-04-16T03:23:39.206Z,23.87
2023-04-16T03:26:07.063Z,23.77
2023-04-16T03:28:35.199Z,25.17
2023-04-16T03:31:03.195Z,23.30
2023-04-16T03:33:32.691Z,24.33
2023-04-16T03:36:00.950Z,24.10
2023-04-16T03:38:31.787Z,24.10
2023-04-16T03:41:00.662Z,24.23
2023-04-16T03:43:30.875Z,24.67
2023-04-16T03:45:58.974Z,23.63
2023-04-16T03:48:27.047Z,24.10
2023-04-16T03:50:56.638Z,22.50
2023-04-16T03:53:24.777Z,23.77
2023-04-16T03:55:53.558Z,24.10
2023-04-16T03:58:22.714Z,24.63
2023-04-16T04:00:54.917Z,24.00
2023-04-16T04:03:23.545Z,25.07
2023-04-16T04:05:51.783Z,24.90
2023-04-16T04:08:28.535Z,25.13
2023-04-16T04:10:56.516Z,25.97
2023-04-16T04:13:25.544Z,25.60
2023-04-16T04:15:54.299Z,25.30
2023-04-16T04:18:23.703Z,26.73
2023-04-16T04:20:51.691Z,27.43
2023-04-16T04:23:21.984Z,27.40
2023-04-16T04:25:52.108Z,27.77
2023-04-16T04:28:20.046Z,29.73
2023-04-16T04:30:47.938Z,28.03
2023-04-16T04:33:15.925Z,30.00
2023-04-16T04:35:47.375Z,28.17
2023-04-16T04:38:19.769Z,28.50
2023-04-16T04:40:47.823Z,29.83
2023-04-16T04:43:21.805Z,29.43
2023-04-16T04:45:49.983Z,28.73
2023-04-16T04:48:18.683Z,29.03
2023-04-16T04:50:47.270Z,28.43
2023-04-16T04:53:15.419Z,29.20
2023-04-16T04:55:44.201Z,29.37
2023-04-16T04:58:12.638Z,28.67
2023-04-16T05:00:43.982Z,30.27
2023-04-16T05:03:13.363Z,29.37
2023-04-16T05:05:41.722Z,28.87
2023-04-16T05:08:09.746Z,30.27
2023-04-16T05:10:37.642Z,30.13
2023-04-16T05:13:05.633Z,29.30
2023-04-16T05:15:33.502Z,30.05
2023-04-16T05:18:02.915Z,29.23
2023-04-16T05:20:30.937Z,28.43
2023-04-16T05:22:59.000Z,29.70
2023-04-16T05:25:26.861Z,28.67
2023-04-16T05:27:54.727Z,29.40
2023-04-16T05:30:22.589Z,28.50
2023-04-16T05:32:50.767Z,28.77
2023-04-16T05:35:20.289Z,29.30
2023-04-16T05:37:48.172Z,29.97
2023-04-16T05:40:16.116Z,30.73
2023-04-16T05:42:44.043Z,29.93
2023-04-16T05:45:12.412Z,29.53
2023-04-16T05:47:40.319Z,29.87
2023-04-16T05:50:08.964Z,30.25
2023-04-16T05:52:38.247Z,31.07
2023-04-16T05:55:07.168Z,30.37
2023-04-16T05:57:35.102Z,30.17
2023-04-16T06:00:03.663Z,30.43
2023-04-16T06:02:42.145Z,30.57
2023-04-16T06:05:10.564Z,30.20
2023-04-16T06:07:39.934Z,30.47
2023-04-16T06:10:08.511Z,30.70
2023-04-16T06:12:36.463Z,31.63
2023-04-16T06:15:04.747Z,29.70
2023-04-16T06:17:32.794Z,31.33
2023-04-16T06:20:00.916Z,29.97
2023-04-16T06:22:28.966Z,30.80
2023-04-16T06:24:58.328Z,30.95
2023-04-16T06:27:27.109Z,29.40
2023-04-16T06:29:55.022Z,28.77
2023-04-16T06:32:23.072Z,29.57
2023-04-16T06:34:51.230Z,29.13
2023-04-16T06:37:19.119Z,29.15
2023-04-16T06:39:47.044Z,30.60
2023-04-16T06:42:16.409Z,30.88
2023-04-16T06:44:44.411Z,30.35
2023-04-16T06:47:12.307Z,29.05
2023-04-16T06:49:40.564Z,29.53
2023-04-16T06:52:08.606Z,26.92
2023-04-16T06:54:36.528Z,29.00
2023-04-16T06:57:04.559Z,29.23
2023-04-16T06:59:34.124Z,29.08
2023-04-16T07:02:02.276Z,29.98
2023-04-16T07:04:30.510Z,28.85
2023-04-16T07:07:05.393Z,27.33
2023-04-16T07:09:36.667Z,27.65
2023-04-16T07:12:04.801Z,28.83
2023-04-16T07:14:34.127Z,27.83
2023-04-16T07:17:02.068Z,26.17
2023-04-16T07:19:32.623Z,27.92
2023-04-16T07:22:00.688Z,25.75
2023-04-16T07:24:28.626Z,26.55
2023-04-16T07:26:56.558Z,26.13
2023-04-16T07:29:24.462Z,26.27
2023-04-16T07:31:53.997Z,25.33
2023-04-16T07:34:22.063Z,26.00
2023-04-16T07:36:50.022Z,25.38
2023-04-16T07:39:18.089Z,25.95
2023-04-16T07:41:46.016Z,25.67
2023-04-16T07:44:13.944Z,28.30
2023-04-16T07:46:46.772Z,28.00
2023-04-16T07:49:16.520Z,29.17
2023-04-16T07:51:44.618Z,26.08
2023-04-16T07:54:12.675Z,30.73
2023-04-16T07:56:40.593Z,27.08
2023-04-16T08:01:42.781Z,26.20
2023-04-16T08:04:10.962Z,25.85
2023-04-16T08:06:40.432Z,25.55
2023-04-16T08:09:08.632Z,25.02
2023-04-16T08:11:36.774Z,25.35
2023-04-16T08:14:04.615Z,25.08
2023-04-16T08:16:32.530Z,25.30
2023-04-16T08:19:01.180Z,26.50
2023-04-16T08:21:29.365Z,26.02
2023-04-16T08:23:59.010Z,27.20
2023-04-16T08:26:27.249Z,26.73
2023-04-16T08:28:55.187Z,25.85
2023-04-16T08:31:23.213Z,26.25
2023-04-16T08:33:51.159Z,26.55
2023-04-16T08:36:19.141Z,26.17
2023-04-16T08:38:47.052Z,31.83
2023-04-16T08:41:16.977Z,26.90
2023-04-16T08:43:47.592Z,28.75
2023-04-16T08:46:18.010Z,28.67
2023-04-16T08:48:50.574Z,28.20
2023-04-16T08:51:20.508Z,25.65
2023-04-16T08:53:53.121Z,25.98
2023-04-16T08:56:24.780Z,26.38
2023-04-16T08:58:55.634Z,26.23
2023-04-16T09:01:26.624Z,25.95
2023-04-16T09:03:55.484Z,26.33
2023-04-16T09:06:23.779Z,26.42
2023-04-16T09:08:53.572Z,25.05
2023-04-16T09:11:22.846Z,24.88
2023-04-16T09:13:51.356Z,25.83
2023-04-16T09:16:21.226Z,26.92
2023-04-16T09:18:49.130Z,25.05
2023-04-16T09:21:17.176Z,26.77
2023-04-16T09:23:45.251Z,26.90
2023-04-16T09:26:13.082Z,27.70
2023-04-16T09:28:44.068Z,26.63
2023-04-16T09:31:14.031Z,26.67
2023-04-16T09:33:42.877Z,26.60
2023-04-16T09:36:11.242Z,25.75
2023-04-16T09:38:49.291Z,26.38
2023-04-16T09:41:17.813Z,26.48
2023-04-16T09:44:04.121Z,25.83
2023-04-16T09:46:32.841Z,25.77
2023-04-16T09:49:06.455Z,25.42
2023-04-16T09:51:38.449Z,25.95
2023-04-16T09:54:06.784Z,25.17
2023-04-16T09:56:34.906Z,26.33
2023-04-16T09:59:04.164Z,26.25
2023-04-16T10:01:32.968Z,24.08
2023-04-16T10:04:01.114Z,25.08
2023-04-16T10:06:31.155Z,23.65
2023-04-16T10:08:59.067Z,29.10
2023-04-16T10:11:27.121Z,21.77
2023-04-16T10:13:55.064Z,20.48
2023-04-16T10:16:24.786Z,20.90
2023-04-16T10:18:54.070Z,21.55
2023-04-16T10:21:22.659Z,21.33
2023-04-16T10:23:52.558Z,25.05
2023-04-16T10:26:20.996Z,23.02
2023-04-16T10:28:49.139Z,22.85
2023-04-16T10:31:17.485Z,23.02
2023-04-16T10:33:47.077Z,22.38
2023-04-16T10:36:16.773Z,24.75
2023-04-16T10:38:47.774Z,23.50
2023-04-16T10:41:15.726Z,22.65
2023-04-16T10:43:46.156Z,20.85
2023-04-16T10:46:24.708Z,20.65
2023-04-16T10:48:55.335Z,21.65
2023-04-16T10:51:29.337Z,20.38
2023-04-16T10:53:58.490Z,19.48
2023-04-16T10:56:27.935Z,18.75
2023-04-16T10:58:57.256Z,20.67
2023-04-16T11:01:31.685Z,21.35
2023-04-16T11:04:03.182Z,20.50
2023-04-16T11:06:32.204Z,19.98
2023-04-16T11:09:00.180Z,19.27
2023-04-16T11:11:31.298Z,19.08
2023-04-16T11:13:59.234Z,18.50
2023-04-16T11:16:28.257Z,18.20
2023-04-16T11:18:57.233Z,19.35
2023-04-16T11:21:26.989Z,18.40
2023-04-16T11:23:55.131Z,18.75
2023-04-16T11:26:27.625Z,18.77
2023-04-16T11:28:57.091Z,17.63
2023-04-16T11:31:27.087Z,18.48
2023-04-16T11:33:57.143Z,17.63
2023-04-16T11:36:27.809Z,16.60
2023-04-16T11:39:02.905Z,17.77
2023-04-16T11:41:30.912Z,17.52
2023-04-16T11:43:58.926Z,17.65
2023-04-16T11:46:39.547Z,18.38
2023-04-16T11:49:07.766Z,17.73
2023-04-16T11:51:42.125Z,18.92
2023-04-16T11:54:12.028Z,17.02
2023-04-16T11:56:46.820Z,16.98
2023-04-16T11:59:16.565Z,17.48
2023-04-16T12:01:48.129Z,17.08
2023-04-16T12:04:17.425Z,15.63
2023-04-16T12:07:08.470Z,16.45
2023-04-16T12:09:39.529Z,17.58
2023-04-16T12:12:26.129Z,16.48
2023-04-16T12:14:54.436Z,17.38
2023-04-16T12:17:22.712Z,14.95
2023-04-16T12:19:52.162Z,15.15
2023-04-16T12:22:28.371Z,14.63
2023-04-16T12:25:03.032Z,15.95
2023-04-16T12:27:48.613Z,15.65
2023-04-16T12:30:18.458Z,15.32
2023-04-16T12:32:49.244Z,15.48
2023-04-16T12:35:31.328Z,15.10
2023-04-16T12:38:01.561Z,14.93
2023-04-16T12:40:29.688Z,15.63
2023-04-16T12:42:57.832Z,13.48
2023-04-16T12:45:25.882Z,12.85
2023-04-16T12:47:53.817Z,12.52
2023-04-16T12:50:21.788Z,12.02
2023-04-16T12:52:49.980Z,12.07
2023-04-16T12:55:19.993Z,12.05
2023-04-16T12:57:48.943Z,12.27
2023-04-16T13:00:17.497Z,12.20
2023-04-16T13:02:45.483Z,12.55
2023-04-16T13:05:16.188Z,12.25
2023-04-16T13:07:44.343Z,12.90
2023-04-16T13:10:12.903Z,13.15
2023-04-16T13:12:42.242Z,14.82
2023-04-16T13:15:11.710Z,15.05
2023-04-16T13:17:42.965Z,15.02
2023-04-16T13:20:11.826Z,14.88
2023-04-16T13:22:40.609Z,15.10
2023-04-16T13:25:09.853Z,15.32
2023-04-16T13:27:37.723Z,14.88
2023-04-16T13:30:08.505Z,14.75
2023-04-16T13:32:36.606Z,14.48
2023-04-16T13:35:04.849Z,15.43
2023-04-16T13:37:32.750Z,13.75
2023-04-16T13:40:00.739Z,15.23
2023-04-16T13:42:29.503Z,13.70
2023-04-16T13:44:58.260Z,13.30
2023-04-16T13:47:27.721Z,13.40
2023-04-16T13:49:55.993Z,14.40
2023-04-16T13:52:23.943Z,14.68
2023-04-16T13:54:51.883Z,14.38
2023-04-16T13:57:22.762Z,15.02
2023-04-16T13:59:50.782Z,13.63
2023-04-16T14:02:18.846Z,13.98
2023-04-16T14:04:48.177Z,14.48
2023-04-16T14:07:17.160Z,12.95
2023-04-16T14:09:45.086Z,13.82
2023-04-16T14:12:13.094Z,13.02
2023-04-16T14:14:41.018Z,12.77
2023-04-16T14:17:09.047Z,13.77
2023-04-16T14:19:36.903Z,12.13
2023-04-16T14:22:07.915Z,12.27
2023-04-16T14:24:37.492Z,12.15
2023-04-16T14:27:05.392Z,11.85
2023-04-16T14:29:33.323Z,11.75
2023-04-16T14:32:01.480Z,11.98
2023-04-16T14:34:29.503Z,11.27
2023-04-16T14:36:57.741Z,11.18
2023-04-16T14:39:27.288Z,11.57
2023-04-16T14:41:55.324Z,10.75
2023-04-16T14:44:23.788Z,11.18
2023-04-16T14:46:51.867Z,10.13
2023-04-16T14:49:19.888Z,10.45
2023-04-16T14:51:47.822Z,11.13
2023-04-16T14:54:15.828Z,10.75
2023-04-16T14:56:45.132Z,10.43
2023-04-16T14:59:13.155Z,10.93
2023-04-16T15:01:41.533Z,11.10
2023-04-16T15:04:10.104Z,11.23
2023-04-16T15:06:38.492Z,11.07
2023-04-16T15:09:07.481Z,10.52
2023-04-16T15:11:35.512Z,11.00
2023-04-16T15:14:04.898Z,11.40
2023-04-16T15:16:32.928Z,12.25
2023-04-16T15:19:02.016Z,11.95
2023-04-16T15:21:31.711Z,12.30
2023-04-16T15:23:59.799Z,12.02
2023-04-16T15:26:27.766Z,12.75
2023-04-16T15:28:55.695Z,12.85
2023-04-16T15:31:25.032Z,12.68
2023-04-16T15:33:53.734Z,12.52
2023-04-16T15:36:21.933Z,12.02
2023-04-16T15:38:49.933Z,12.90
2023-04-16T15:41:17.867Z,12.15
2023-04-16T15:43:46.204Z,12.65
2023-04-16T15:46:15.057Z,12.40
2023-04-16T15:48:44.403Z,12.75
2023-04-16T15:51:12.599Z,13.65
2023-04-16T15:53:40.604Z,12.30
2023-04-16T15:56:08.647Z,13.05
2023-04-16T15:58:36.563Z,12.90
2023-04-16T16:01:04.517Z,12.57
2023-04-16T16:03:34.259Z,14.05
2023-04-16T16:06:04.964Z,13.07
2023-04-16T16:12:38.860Z,12.88
2023-04-16T16:15:08.136Z,12.57
2023-04-16T16:17:36.174Z,11.90
2023-04-16T16:20:05.133Z,12.07
2023-04-16T16:22:34.529Z,11.57
2023-04-16T16:25:03.240Z,11.48
2023-04-16T16:27:31.157Z,11.05
2023-04-16T16:30:00.880Z,11.88
2023-04-16T16:32:28.921Z,11.07
2023-04-16T16:34:57.592Z,10.90
2023-04-16T16:37:26.449Z,10.73
2023-04-16T16:39:55.828Z,11.38
2023-04-16T16:42:23.826Z,11.13
2023-04-16T16:44:51.890Z,11.23
2023-04-16T16:47:20.017Z,10.73
2023-04-16T16:49:47.882Z,10.45
2023-04-16T16:52:15.897Z,11.10
2023-04-16T16:54:44.921Z,10.68
2023-04-16T16:57:15.423Z,11.88
2023-04-16T16:59:43.383Z,10.45
2023-04-16T17:02:11.359Z,10.63
2023-04-16T17:04:39.367Z,10.95
2023-04-16T17:07:07.320Z,11.52
2023-04-16T17:09:35.467Z,11.25
2023-04-16T17:12:03.433Z,11.70
2023-04-16T17:14:32.828Z,11.88
2023-04-16T17:17:00.839Z,11.30
2023-04-16T17:19:29.190Z,10.52
2023-04-16T17:21:57.183Z,10.52
2023-04-16T17:24:25.155Z,12.07
2023-04-16T17:26:53.051Z,11.38
2023-04-16T17:29:25.810Z,11.05
2023-04-16T17:31:55.202Z,10.77
2023-04-16T17:34:23.883Z,11.05
2023-04-16T17:36:51.888Z,13.68
2023-04-16T17:39:20.760Z,12.20
2023-04-16T17:41:54.174Z,10.98
2023-04-16T17:44:23.064Z,11.32
2023-04-16T17:46:51.201Z,11.10
2023-04-16T17:49:20.618Z,11.30
2023-04-16T17:51:49.214Z,11.18
2023-04-16T17:54:17.244Z,11.32
2023-04-16T17:56:46.043Z,11.23
2023-04-16T17:59:14.083Z,11.80
2023-04-16T18:01:42.111Z,11.65
2023-04-16T18:04:11.283Z,12.30
2023-04-16T18:06:40.999Z,11.57
2023-04-16T18:09:08.869Z,11.75
2023-04-16T18:11:37.172Z,11.48
2023-04-16T18:14:05.222Z,12.40
2023-04-16T18:16:33.180Z,12.02
2023-04-16T18:19:01.067Z,11.63
2023-04-16T18:21:29.868Z,11.55
2023-04-16T18:24:00.876Z,11.95
2023-04-16T18:26:29.950Z,11.85
2023-04-16T18:28:58.040Z,11.60
2023-04-16T18:31:26.817Z,11.77
2023-04-16T18:33:57.878Z,12.20
2023-04-16T18:36:27.233Z,10.80
2023-04-16T18:41:28.443Z,11.30
2023-04-16T18:43:56.416Z,12.63
2023-04-16T18:46:25.198Z,12.32
2023-04-16T18:48:53.430Z,12.90
2023-04-16T18:51:21.397Z,12.30
2023-04-16T18:53:49.233Z,12.70
2023-04-16T18:56:17.363Z,13.27
2023-04-16T18:58:47.785Z,13.18
2023-04-16T19:01:16.405Z,12.50
2023-04-16T19:03:45.478Z,12.80
2023-04-16T19:06:13.411Z,12.60
2023-04-16T19:08:41.873Z,12.45
2023-04-16T19:11:09.898Z,13.18
2023-04-16T19:13:38.647Z,13.40
2023-04-16T19:16:11.429Z,14.13
2023-04-16T19:18:40.068Z,13.63
2023-04-16T19:21:10.052Z,14.43
2023-04-16T19:23:38.123Z,12.73
2023-04-16T19:26:06.313Z,13.50
2023-04-16T19:28:34.304Z,13.50
2023-04-16T19:31:02.266Z,12.77
2023-04-16T19:33:32.028Z,13.00
2023-04-16T19:36:00.285Z,12.73
2023-04-16T19:38:28.574Z,14.30
2023-04-16T19:40:56.553Z,12.77
2023-04-16T19:43:24.425Z,13.18
2023-04-16T19:45:53.517Z,13.85
2023-04-16T19:48:21.817Z,13.60
2023-04-16T19:50:51.181Z,14.10
2023-04-16T19:53:19.119Z,15.45
2023-04-16T19:55:46.959Z,15.88
2023-04-16T19:58:15.051Z,16.90
2023-04-16T20:00:43.165Z,16.95
2023-04-16T20:03:11.146Z,16.67
2023-04-16T20:05:39.171Z,18.40
2023-04-16T20:08:08.702Z,17.05
2023-04-16T20:10:36.617Z,16.92
2023-04-16T20:13:06.566Z,18.65
2023-04-16T20:15:34.458Z,18.48
2023-04-16T20:18:02.324Z,17.45
2023-04-16T20:20:30.569Z,18.15
2023-04-16T20:22:59.633Z,18.50
2023-04-16T20:25:29.686Z,18.27
2023-04-16T20:27:57.611Z,18.08
2023-04-16T20:30:29.086Z,18.92
2023-04-16T20:32:57.430Z,18.77
2023-04-16T20:35:25.436Z,19.83
2023-04-16T20:37:53.323Z,17.40
2023-04-16T20:40:22.509Z,16.83
2023-04-16T20:42:52.140Z,17.33
2023-04-16T20:45:20.284Z,16.98
2023-04-16T20:47:48.291Z,17.13
2023-04-16T20:50:16.668Z,18.90
2023-04-16T20:52:44.580Z,18.95
2023-04-16T20:55:12.420Z,19.70
2023-04-16T20:57:40.583Z,19.98
2023-04-16T21:00:12.032Z,21.13
2023-04-16T21:02:40.194Z,21.15
2023-04-16T21:05:10.501Z,21.85
2023-04-16T21:07:38.567Z,22.85
2023-04-16T21:10:07.529Z,22.52
2023-04-16T21:12:35.694Z,23.10
2023-04-16T21:15:03.726Z,23.80
2023-04-16T21:17:32.959Z,23.08
2023-04-16T21:20:01.168Z,23.50
2023-04-16T21:22:29.052Z,23.95
2023-04-16T21:24:56.881Z,24.30
2023-04-16T21:27:24.813Z,24.85
2023-04-16T21:29:52.925Z,24.85
2023-04-16T21:32:20.935Z,23.25
2023-04-16T21:34:50.314Z,25.17
2023-04-16T21:37:18.216Z,23.38
2023-04-16T21:39:46.185Z,24.15
2023-04-16T21:42:14.079Z,25.23
2023-04-16T21:44:42.021Z,23.15
2023-04-16T21:47:09.924Z,23.80
2023-04-16T21:49:42.396Z,24.40
2023-04-16T21:52:14.252Z,26.25
2023-04-16T21:54:42.295Z,25.50
2023-04-16T21:57:10.164Z,24.92
2023-04-16T21:59:38.149Z,26.38
2023-04-16T22:02:06.522Z,26.30
2023-04-16T22:04:38.585Z,26.25
2023-04-16T22:07:08.721Z,28.30
2023-04-16T22:09:38.086Z,27.15
2023-04-16T22:12:10.246Z,28.58
2023-04-16T22:14:43.998Z,28.73
2023-04-16T22:17:12.157Z,29.13
2023-04-16T22:19:40.105Z,28.58
2023-04-16T22:22:08.007Z,29.13
2023-04-16T22:24:37.499Z,28.98
2023-04-16T22:27:05.614Z,25.20
2023-04-16T22:29:33.513Z,27.90
2023-04-16T22:32:02.005Z,26.75
2023-04-16T22:34:29.933Z,26.73
2023-04-16T22:36:58.044Z,27.33
2023-04-16T22:39:26.101Z,27.10
2023-04-16T22:41:56.039Z,26.73
2023-04-16T22:44:24.017Z,26.98
2023-04-16T22:46:52.064Z,25.95
2023-04-16T22:49:20.029Z,25.98
2023-04-16T22:51:47.980Z,27.13
2023-04-16T22:54:15.851Z,26.70
2023-04-16T22:56:43.781Z,27.90
2023-04-16T22:59:13.301Z,26.85
2023-04-16T23:01:42.193Z,26.40
2023-04-16T23:04:10.231Z,26.60
2023-04-16T23:06:38.210Z,26.98
2023-04-16T23:09:06.145Z,25.50
2023-04-16T23:11:34.123Z,25.60
2023-04-16T23:14:02.429Z,25.73
2023-04-16T23:16:31.686Z,25.85
2023-04-16T23:18:59.581Z,26.10
2023-04-16T23:21:27.485Z,26.42
2023-04-16T23:23:56.625Z,26.90
2023-04-16T23:26:24.496Z,27.42
2023-04-16T23:28:52.457Z,26.90
2023-04-16T23:31:20.385Z,29.27
2023-04-16T23:33:49.693Z,28.55
2023-04-16T23:36:17.575Z,28.63
2023-04-16T23:38:45.532Z,28.20
2023-04-16T23:41:13.320Z,29.02
2023-04-16T23:43:41.287Z,30.08
2023-04-16T23:46:09.226Z,30.63
2023-04-16T23:48:37.146Z,29.83
2023-04-16T23:51:06.824Z,29.45
2023-04-16T23:53:36.333Z,29.20
2023-04-16T23:56:04.225Z,29.00
2023-04-16T23:58:32.102Z,28.25
